Time;durP1;ratioP1;P1;durP2;ratioP2;P2;SDS_P1;SDS_P2;PMS_P1;PMS_P2;Temp;Humidity;BMP_temperature;BMP_pressure;BME280_temperature;BME280_humidity;BME280_pressure;Samples;Min_cycle;Max_cycle;Signal;HPM_P1;HPM_P2
2023/07/29 00:00:56;;;;;;;6.78;3.90;;;;;;;17.50;100.00;97243.41;5072852;28;20025;-72
2023/07/29 00:03:21;;;;;;;8.95;4.18;;;;;;;17.45;100.00;97238.44;5054711;28;20404;-72
2023/07/29 00:05:47;;;;;;;5.50;3.92;;;;;;;17.53;100.00;97249.41;5055095;28;20025;-72
2023/07/29 00:08:13;;;;;;;4.88;3.97;;;;;;;17.54;100.00;97252.94;5054614;28;20117;-72
2023/07/29 00:10:39;;;;;;;6.20;3.47;;;;;;;17.57;100.00;97241.84;5054671;28;20503;-73
2023/07/29 00:13:07;;;;;;;6.15;4.40;;;;;;;17.49;100.00;97239.84;5054518;28;20109;-73
2023/07/29 00:15:33;;;;;;;8.18;3.95;;;;;;;17.41;100.00;97234.31;5072311;28;20024;-73
2023/07/29 00:18:00;;;;;;;5.47;4.03;;;;;;;17.52;100.00;97250.38;5071248;28;20055;-73
2023/07/29 00:20:25;;;;;;;6.18;4.05;;;;;;;17.50;100.00;97246.13;5054142;28;20028;-73
2023/07/29 00:22:53;;;;;;;9.05;4.32;;;;;;;17.45;100.00;97253.78;5054797;28;20485;-73
2023/07/29 00:25:19;;;;;;;7.30;3.97;;;;;;;17.44;100.00;97257.53;5072478;28;20035;-73
2023/07/29 00:27:44;;;;;;;7.30;4.18;;;;;;;17.41;100.00;97257.81;5054454;28;20033;-73
2023/07/29 00:30:10;;;;;;;7.30;4.28;;;;;;;17.29;100.00;97254.38;5072381;28;20476;-72
2023/07/29 00:32:37;;;;;;;5.68;4.13;;;;;;;17.18;100.00;97257.25;5054272;28;20108;-73
2023/07/29 00:35:02;;;;;;;9.13;4.13;;;;;;;17.10;100.00;97252.53;5054447;28;20025;-73
2023/07/29 00:37:28;;;;;;;8.93;4.20;;;;;;;17.05;100.00;97249.41;5054260;28;20528;-73
2023/07/29 00:39:54;;;;;;;5.82;4.47;;;;;;;17.06;100.00;97255.69;5054277;28;20058;-72
2023/07/29 00:42:20;;;;;;;5.97;4.28;;;;;;;16.99;100.00;97257.25;5072251;28;20051;-73
2023/07/29 00:44:45;;;;;;;7.75;4.00;;;;;;;16.98;100.00;97255.56;5071793;28;20120;-72
2023/07/29 00:47:11;;;;;;;5.63;4.22;;;;;;;16.90;100.00;97250.84;5054614;28;20100;-72
2023/07/29 00:49:37;;;;;;;5.80;3.88;;;;;;;16.98;100.00;97260.97;5054008;28;20395;-72
2023/07/29 00:52:02;;;;;;;5.93;4.35;;;;;;;16.94;100.00;97254.97;5071977;28;20017;-73
2023/07/29 00:54:28;;;;;;;7.10;3.95;;;;;;;16.93;100.00;97239.75;5053794;28;20029;-73
2023/07/29 00:56:53;;;;;;;5.55;3.85;;;;;;;17.01;100.00;97247.16;5053937;28;20480;-72
2023/07/29 00:59:19;;;;;;;5.13;3.88;;;;;;;17.01;100.00;97244.47;5054128;28;20036;-73
2023/07/29 01:01:44;;;;;;;5.32;3.92;;;;;;;16.90;100.00;97252.69;5053717;28;20032;-73
2023/07/29 01:04:10;;;;;;;5.90;4.07;;;;;;;16.90;100.00;97255.38;5053664;28;20189;-71
2023/07/29 01:07:06;;;;;;;5.22;4.07;;;;;;;16.90;100.00;97258.09;5053586;28;20028;-73
2023/07/29 01:09:58;;;;;;;6.30;4.10;;;;;;;16.87;100.00;97259.22;5070115;28;20492;-73
2023/07/29 01:12:46;;;;;;;5.65;4.00;;;;;;;16.84;100.00;97251.41;5071900;28;20032;-72
2023/07/29 01:15:36;;;;;;;6.05;3.70;;;;;;;16.83;100.00;97251.56;5053237;28;20079;-72
2023/07/29 01:18:06;;;;;;;8.93;4.00;;;;;;;16.72;100.00;97256.09;5070108;28;20040;-72
2023/07/29 01:20:37;;;;;;;6.00;4.07;;;;;;;16.65;100.00;97249.53;5053451;28;20033;-73
2023/07/29 01:23:03;;;;;;;5.47;3.85;;;;;;;16.59;100.00;97249.22;5053541;28;20484;-73
2023/07/29 01:25:28;;;;;;;6.45;3.80;;;;;;;16.52;100.00;97248.91;5053290;28;20029;-72
2023/07/29 01:27:55;;;;;;;8.93;3.83;;;;;;;16.47;100.00;97248.47;5053232;28;20060;-72
2023/07/29 01:30:23;;;;;;;4.85;3.80;;;;;;;16.50;100.00;97245.50;5071217;28;20077;-73
2023/07/29 01:32:54;;;;;;;8.00;4.07;;;;;;;16.47;100.00;97248.47;5052390;28;20024;-72
2023/07/29 01:36:02;;;;;;;6.13;3.88;;;;;;;16.60;100.00;97251.81;5053336;28;20013;-72
2023/07/29 01:38:34;;;;;;;5.50;4.10;;;;;;;16.60;100.00;97249.09;4972952;28;20625;-72
2023/07/29 01:41:06;;;;;;;5.28;3.88;;;;;;;16.56;100.00;97244.97;5026452;28;20404;-72
2023/07/29 01:43:32;;;;;;;11.93;3.93;;;;;;;16.46;100.00;97244.06;5033160;28;20033;-72
2023/07/29 01:45:58;;;;;;;5.47;3.88;;;;;;;16.48;100.00;97255.59;5032936;28;20078;-73
2023/07/29 01:48:24;;;;;;;7.10;3.33;;;;;;;16.40;100.00;97255.41;5051069;28;20029;-73
2023/07/29 01:50:49;;;;;;;4.13;3.58;;;;;;;16.32;100.00;97247.16;5032433;28;20508;-73
2023/07/29 01:53:15;;;;;;;6.97;3.95;;;;;;;16.31;100.00;97252.69;5050778;28;20029;-72
2023/07/29 01:55:42;;;;;;;5.68;3.75;;;;;;;16.39;100.00;97252.88;5032499;28;20021;-72
2023/07/29 01:58:07;;;;;;;6.78;3.67;;;;;;;16.30;100.00;97245.59;5033147;28;20619;-73
2023/07/29 02:00:33;;;;;;;6.80;3.78;;;;;;;16.33;100.00;97254.28;5046466;28;20064;-72
2023/07/29 02:02:58;;;;;;;4.78;3.83;;;;;;;16.31;100.00;97264.34;5050503;28;20021;-73
2023/07/29 02:05:24;;;;;;;4.97;3.97;;;;;;;16.28;100.00;97261.91;5050787;28;20033;-72
2023/07/29 02:07:49;;;;;;;6.10;3.97;;;;;;;16.26;100.00;97272.00;5065584;28;20485;-73
2023/07/29 02:10:15;;;;;;;6.45;4.15;;;;;;;16.24;100.00;97261.31;5050749;28;20024;-72
2023/07/29 02:12:41;;;;;;;4.72;3.53;;;;;;;16.21;100.00;97260.78;5032847;28;20081;-73
2023/07/29 02:15:07;;;;;;;4.13;3.67;;;;;;;16.16;100.00;97252.22;5050209;28;20175;-73
2023/07/29 02:17:32;;;;;;;10.18;4.13;;;;;;;16.13;100.00;97263.28;5032778;28;20521;-73
2023/07/29 02:19:58;;;;;;;5.75;4.13;;;;;;;16.10;100.00;97252.75;5050328;28;20108;-73
2023/07/29 02:22:23;;;;;;;10.07;4.63;;;;;;;16.04;100.00;97251.47;5032609;28;20056;-73
2023/07/29 02:24:49;;;;;;;4.75;3.85;;;;;;;16.01;100.00;97253.56;5050047;28;20496;-73
2023/07/29 02:27:14;;;;;;;6.82;4.40;;;;;;;15.87;100.00;97245.84;5032619;28;20021;-73
2023/07/29 02:29:40;;;;;;;5.57;4.50;;;;;;;15.96;100.00;97255.84;5043465;28;20024;-72
2023/07/29 02:32:05;;;;;;;6.95;4.28;;;;;;;16.08;100.00;97261.00;5050094;28;20454;-73
2023/07/29 02:34:31;;;;;;;8.02;4.72;;;;;;;16.17;100.00;97264.72;5032712;28;20100;-73
2023/07/29 02:36:56;;;;;;;5.55;4.22;;;;;;;16.18;100.00;97255.66;5032199;28;20106;-72
2023/07/29 02:39:23;;;;;;;7.95;4.68;;;;;;;16.21;100.00;97253.50;5050250;28;20017;-72
2023/07/29 02:41:48;;;;;;;6.50;4.47;;;;;;;16.20;100.00;97269.84;5050370;28;20396;-72
2023/07/29 02:44:14;;;;;;;6.45;4.40;;;;;;;16.23;100.00;97269.56;5034981;28;20025;-72
2023/07/29 02:46:40;;;;;;;14.45;5.13;;;;;;;16.15;100.00;97272.13;5054386;28;20087;-72
2023/07/29 02:49:05;;;;;;;38.75;10.52;;;;;;;16.11;100.00;97271.53;5054046;28;20025;-71
2023/07/29 02:51:31;;;;;;;26.40;8.25;;;;;;;16.09;100.00;97275.31;5054202;28;20480;-72
2023/07/29 02:53:56;;;;;;;31.50;8.50;;;;;;;16.05;100.00;97282.00;5054025;28;20021;-72
2023/07/29 02:56:22;;;;;;;14.45;5.55;;;;;;;16.00;100.00;97273.44;5036303;28;20143;-73
2023/07/29 02:58:48;;;;;;;7.18;4.10;;;;;;;15.94;100.00;97276.69;5036391;28;20103;-73
2023/07/29 03:01:13;;;;;;;22.05;4.50;;;;;;;15.87;100.00;97267.44;5053854;28;20124;-73
2023/07/29 03:03:39;;;;;;;9.93;4.22;;;;;;;15.73;100.00;97271.31;5053965;28;20021;-73
2023/07/29 03:06:06;;;;;;;5.38;4.40;;;;;;;15.70;100.00;97285.06;5035483;28;20033;-72
2023/07/29 03:08:32;;;;;;;6.53;4.65;;;;;;;15.68;100.00;97290.63;5035989;28;20043;-72
2023/07/29 03:10:58;;;;;;;7.80;4.22;;;;;;;15.66;100.00;97289.00;5036010;28;20115;-72
2023/07/29 03:13:24;;;;;;;8.15;4.45;;;;;;;15.66;100.00;97286.31;5035914;28;20054;-72
2023/07/29 03:15:49;;;;;;;14.00;4.75;;;;;;;15.67;100.00;97286.19;5019420;28;20024;-72
2023/07/29 03:18:15;;;;;;;10.85;4.82;;;;;;;15.67;100.00;97285.34;5053383;28;20028;-73
2023/07/29 03:20:41;;;;;;;13.57;4.70;;;;;;;15.62;100.00;97290.28;5035872;28;20025;-72
2023/07/29 03:23:07;;;;;;;14.68;4.57;;;;;;;15.62;100.00;97293.84;5019069;28;20051;-73
2023/07/29 03:25:32;;;;;;;12.40;5.60;;;;;;;15.62;100.00;97288.44;5068732;28;20126;-73
2023/07/29 03:27:58;;;;;;;8.27;4.72;;;;;;;15.65;100.00;97293.59;5036018;28;20033;-73
2023/07/29 03:30:24;;;;;;;8.27;4.45;;;;;;;15.65;100.00;97298.97;5052092;28;20025;-73
2023/07/29 03:32:50;;;;;;;17.98;4.53;;;;;;;15.68;100.00;97306.78;5053543;28;20021;-73
2023/07/29 03:35:15;;;;;;;11.15;5.25;;;;;;;15.74;100.00;97302.72;5035421;28;20036;-73
2023/07/29 03:37:41;;;;;;;11.20;4.57;;;;;;;15.76;100.00;97305.25;5045600;28;20056;-71
2023/07/29 03:40:09;;;;;;;9.75;4.50;;;;;;;15.71;100.00;97309.22;5038578;28;20039;-72
2023/07/29 03:42:35;;;;;;;8.30;4.13;;;;;;;15.81;100.00;97305.72;5055513;28;20400;-72
2023/07/29 03:45:00;;;;;;;9.18;4.70;;;;;;;15.89;100.00;97311.31;5073348;28;20033;-72
2023/07/29 03:47:27;;;;;;;11.82;5.10;;;;;;;15.84;100.00;97314.41;5055134;28;20051;-72
2023/07/29 03:49:52;;;;;;;15.27;4.55;;;;;;;15.92;100.00;97320.00;5055277;28;20081;-72
2023/07/29 03:52:18;;;;;;;11.65;5.55;;;;;;;15.95;100.00;97313.47;5088654;28;20028;-80
2023/07/29 03:54:43;;;;;;;15.73;6.28;;;;;;;16.00;100.00;97316.59;5038172;28;20578;-77
2023/07/29 03:57:09;;;;;;;24.35;10.57;;;;;;;15.94;100.00;97306.34;5038644;28;20036;-76
2023/07/29 03:59:34;;;;;;;23.35;9.80;;;;;;;15.95;100.00;97324.25;5038512;28;20391;-73
2023/07/29 04:02:00;;;;;;;11.82;6.68;;;;;;;16.07;100.00;97326.75;5073142;28;20028;-74
2023/07/29 04:04:26;;;;;;;11.48;6.60;;;;;;;16.04;100.00;97313.53;5072226;28;20119;-74
2023/07/29 04:06:51;;;;;;;12.30;7.28;;;;;;;16.07;100.00;97315.09;5072978;28;20032;-74
2023/07/29 04:09:17;;;;;;;12.43;6.63;;;;;;;16.00;100.00;97317.47;5054836;28;20055;-74
2023/07/29 04:11:42;;;;;;;12.05;6.05;;;;;;;16.14;100.00;97318.97;5037831;28;20040;-74
2023/07/29 04:14:08;;;;;;;24.85;7.15;;;;;;;16.13;100.00;97314.56;5038530;28;20054;-74
2023/07/29 04:16:33;;;;;;;18.83;6.40;;;;;;;16.10;100.00;97312.13;5054429;28;20077;-74
2023/07/29 04:18:59;;;;;;;9.52;5.45;;;;;;;16.20;100.00;97313.03;5054710;28;20178;-73
2023/07/29 04:21:24;;;;;;;12.45;5.65;;;;;;;16.25;100.00;97314.31;5053636;28;20074;-73
2023/07/29 04:23:50;;;;;;;8.50;5.60;;;;;;;16.36;100.00;97313.38;5072831;28;20038;-74
2023/07/29 04:26:15;;;;;;;9.23;5.60;;;;;;;16.40;100.00;97308.53;5072572;28;20029;-75
2023/07/29 04:28:42;;;;;;;16.67;5.80;;;;;;;16.57;100.00;97311.50;5073096;28;20512;-74
2023/07/29 04:31:08;;;;;;;18.60;6.05;;;;;;;16.63;100.00;97315.50;5072445;28;20047;-74
2023/07/29 04:33:33;;;;;;;45.30;12.95;;;;;;;16.79;100.00;97315.81;5053919;28;20032;-74
2023/07/29 04:35:59;;;;;;;32.88;11.48;;;;;;;17.91;100.00;97299.00;5052771;28;20028;-74
2023/07/29 04:38:30;;;;;;;17.92;7.65;;;;;;;19.40;100.00;97308.56;5053695;28;20048;-75
2023/07/29 04:40:56;;;;;;;9.38;5.40;;;;;;;19.89;100.00;97298.94;5054362;28;20021;-75
2023/07/29 04:43:21;;;;;;;27.92;7.38;;;;;;;19.42;100.00;97311.09;5087485;28;20033;-75
2023/07/29 04:45:47;;;;;;;14.52;5.32;;;;;;;18.89;100.00;97314.59;5071913;28;20040;-74
2023/07/29 04:48:12;;;;;;;8.85;5.63;;;;;;;18.51;100.00;97312.09;5054334;28;20044;-76
2023/07/29 04:50:38;;;;;;;5.32;4.43;;;;;;;18.20;100.00;97306.06;5054011;28;20112;-75
2023/07/29 04:53:03;;;;;;;7.18;4.75;;;;;;;17.84;100.00;97318.53;5071964;28;20119;-74
2023/07/29 04:55:29;;;;;;;13.20;5.47;;;;;;;17.71;100.00;97331.56;5071672;28;20095;-75
2023/07/29 04:57:54;;;;;;;21.27;5.72;;;;;;;17.74;100.00;97327.69;5071771;28;20055;-75
2023/07/29 05:00:20;;;;;;;8.65;5.07;;;;;;;17.67;100.00;97313.88;5053762;28;20017;-75
2023/07/29 05:02:45;;;;;;;7.20;5.25;;;;;;;17.76;100.00;97322.97;5053216;28;20028;-75
2023/07/29 05:05:11;;;;;;;9.15;5.50;;;;;;;17.79;100.00;97312.72;5071740;28;20055;-75
2023/07/29 05:07:36;;;;;;;7.15;5.10;;;;;;;17.97;100.00;97307.41;5052391;28;20032;-76
2023/07/29 05:10:02;;;;;;;15.25;5.35;;;;;;;18.08;100.00;97304.53;5071223;28;20020;-75
2023/07/29 05:12:29;;;;;;;9.80;4.60;;;;;;;18.12;100.00;97313.22;5070193;28;20020;-75
2023/07/29 05:14:54;;;;;;;12.05;7.85;;;;;;;18.20;100.00;97313.34;5035621;28;20025;-76
2023/07/29 05:17:20;;;;;;;10.50;5.35;;;;;;;18.28;100.00;97322.41;5053482;28;20126;-75
2023/07/29 05:19:45;;;;;;;18.52;6.20;;;;;;;18.39;100.00;97332.22;5071102;28;20012;-75
2023/07/29 05:22:12;;;;;;;12.43;5.78;;;;;;;18.55;100.00;97324.31;5071793;28;20025;-86
2023/07/29 05:24:37;;;;;;;10.70;5.13;;;;;;;18.47;100.00;97324.19;5054012;28;20024;-75
2023/07/29 05:27:03;;;;;;;10.98;5.13;;;;;;;18.62;100.00;97317.31;5058077;28;20111;-85
2023/07/29 05:29:28;;;;;;;13.77;6.22;;;;;;;19.31;100.00;97319.44;5053304;28;20028;-75
2023/07/29 05:31:54;;;;;;;8.18;4.20;;;;;;;20.81;100.00;97295.56;5053116;28;20028;-75
2023/07/29 05:34:19;;;;;;;15.55;5.22;;;;;;;22.57;100.00;97296.66;5037444;28;20032;-75
2023/07/29 05:36:45;;;;;;;10.98;4.13;;;;;;;23.90;100.00;97277.28;5070626;28;20411;-75
2023/07/29 05:39:12;;;;;;;6.70;3.92;;;;;;;24.68;100.00;97277.66;5053387;28;20036;-76
2023/07/29 05:41:37;;;;;;;11.68;3.92;;;;;;;25.45;95.91;97269.78;5071279;28;20079;-75
2023/07/29 05:44:03;;;;;;;6.07;3.67;;;;;;;25.23;96.74;97282.59;5071047;28;20075;-75
2023/07/29 05:46:28;;;;;;;9.30;3.97;;;;;;;26.00;90.09;97269.06;5071052;28;20423;-76
2023/07/29 05:48:54;;;;;;;7.30;3.95;;;;;;;25.50;92.98;97277.47;5052662;28;20468;-76
2023/07/29 05:51:20;;;;;;;9.68;4.45;;;;;;;25.77;94.02;97285.75;5070739;28;20032;-76
2023/07/29 05:53:45;;;;;;;9.05;6.00;;;;;;;26.05;90.51;97273.97;5052639;28;20138;-76
2023/07/29 05:56:11;;;;;;;13.80;6.28;;;;;;;26.56;87.54;97285.56;5053115;28;20103;-75
2023/07/29 05:58:36;;;;;;;5.18;4.03;;;;;;;27.28;82.38;97278.56;5053021;28;20046;-76
2023/07/29 06:01:02;;;;;;;11.77;4.18;;;;;;;28.55;71.05;97259.25;5070593;28;20423;-75
2023/07/29 06:03:27;;;;;;;19.33;5.93;;;;;;;29.29;64.87;97259.66;5052975;28;20494;-77
2023/07/29 06:05:54;;;;;;;10.63;5.20;;;;;;;30.32;59.70;97250.06;5070246;28;20028;-75
2023/07/29 06:08:19;;;;;;;14.23;6.85;;;;;;;30.72;56.42;97240.34;5053066;28;20028;-75
2023/07/29 06:10:45;;;;;;;5.13;3.67;;;;;;;31.05;53.39;97242.75;5070526;28;20102;-76
2023/07/29 06:13:10;;;;;;;7.78;3.35;;;;;;;30.36;54.46;97249.41;5070774;28;20082;-75
2023/07/29 06:15:36;;;;;;;5.32;3.70;;;;;;;31.39;52.47;97242.06;5086095;28;20028;-75
2023/07/29 06:18:01;;;;;;;6.70;3.92;;;;;;;30.97;52.25;97245.81;5070159;28;20127;-76
2023/07/29 06:20:27;;;;;;;5.53;3.53;;;;;;;30.95;51.87;97236.91;5052667;28;20016;-74
2023/07/29 06:22:53;;;;;;;7.38;3.50;;;;;;;31.14;51.43;97233.91;5085748;28;20468;-74
2023/07/29 06:25:18;;;;;;;11.40;3.85;;;;;;;31.36;51.14;97238.94;5070424;28;20017;-74
2023/07/29 06:27:44;;;;;;;18.95;5.10;;;;;;;31.09;52.74;97246.75;5052586;28;20439;-72
2023/07/29 06:30:09;;;;;;;9.15;3.72;;;;;;;31.88;50.35;97235.41;5052555;28;20043;-74
2023/07/29 06:32:35;;;;;;;9.95;3.72;;;;;;;32.47;47.60;97215.06;5070295;28;20107;-72
2023/07/29 06:35:00;;;;;;;12.93;3.53;;;;;;;32.77;46.53;97230.72;5052331;28;20027;-72
2023/07/29 06:37:26;;;;;;;6.68;3.42;;;;;;;32.38;46.15;97235.88;5070442;28;20044;-72
2023/07/29 06:39:51;;;;;;;25.65;4.13;;;;;;;33.46;44.53;97226.94;5070467;28;20035;-73
2023/07/29 06:42:17;;;;;;;12.80;3.78;;;;;;;33.68;43.40;97228.81;5070364;28;20403;-73
2023/07/29 06:44:42;;;;;;;8.55;3.47;;;;;;;32.85;44.94;97228.44;5070211;28;20025;-72
2023/07/29 06:47:08;;;;;;;6.00;3.45;;;;;;;32.25;45.40;97225.03;5069643;28;20472;-73
2023/07/29 06:49:34;;;;;;;8.32;3.05;;;;;;;31.40;47.29;97229.94;5052214;28;20033;-73
2023/07/29 06:52:00;;;;;;;6.72;3.47;;;;;;;31.86;46.93;97228.44;5085279;28;20449;-73
2023/07/29 06:54:26;;;;;;;6.68;3.20;;;;;;;32.83;45.73;97229.75;5052370;28;20056;-73
2023/07/29 06:56:52;;;;;;;5.53;3.42;;;;;;;33.83;43.34;97219.06;5070201;28;20482;-73
2023/07/29 06:59:17;;;;;;;7.13;3.33;;;;;;;33.72;42.95;97216.09;5051874;28;20456;-74
2023/07/29 07:01:43;;;;;;;3.60;3.28;;;;;;;33.40;43.03;97206.59;5052155;28;20060;-73
2023/07/29 07:04:09;;;;;;;4.38;2.92;;;;;;;32.89;43.60;97220.44;5085364;28;20381;-73
2023/07/29 07:06:34;;;;;;;8.38;3.25;;;;;;;32.01;45.11;97215.84;5052133;28;20028;-72
2023/07/29 07:08:59;;;;;;;6.90;3.08;;;;;;;32.54;44.52;97213.00;5069830;28;20025;-72
2023/07/29 07:11:25;;;;;;;7.50;3.28;;;;;;;34.24;41.62;97197.31;5052035;28;20057;-73
2023/07/29 07:13:51;;;;;;;4.05;3.35;;;;;;;35.38;39.65;97201.19;5052033;28;20029;-73
2023/07/29 07:16:16;;;;;;;36.70;4.75;;;;;;;35.34;39.29;97197.28;5069756;28;20032;-73
2023/07/29 07:18:42;;;;;;;14.68;3.42;;;;;;;35.94;38.18;97199.03;5070019;28;20032;-73
2023/07/29 07:21:07;;;;;;;12.07;5.97;;;;;;;37.00;36.62;97185.94;5051573;28;20494;-74
2023/07/29 07:23:33;;;;;;;4.43;3.40;;;;;;;37.33;36.01;97185.50;5051646;28;20466;-74
2023/07/29 07:25:58;;;;;;;4.13;3.10;;;;;;;38.07;34.70;97187.94;5085264;28;20078;-74
2023/07/29 07:28:24;;;;;;;6.22;3.00;;;;;;;38.32;34.28;97179.56;5069410;28;20029;-73
2023/07/29 07:30:49;;;;;;;12.55;4.85;;;;;;;38.63;33.72;97194.38;5071442;28;20055;-74
2023/07/29 07:33:15;;;;;;;4.90;3.45;;;;;;;38.56;33.30;97179.81;5073651;28;20078;-74
2023/07/29 07:35:42;;;;;;;7.50;3.28;;;;;;;39.01;32.63;97181.69;5073523;28;20024;-74
2023/07/29 07:38:09;;;;;;;14.05;3.28;;;;;;;38.78;32.48;97182.31;5073054;28;20455;-74
2023/07/29 07:40:35;;;;;;;5.13;3.05;;;;;;;39.10;31.70;97187.56;5073119;28;20029;-74
2023/07/29 07:43:01;;;;;;;14.20;3.20;;;;;;;38.69;32.00;97184.84;5073048;28;20060;-74
2023/07/29 07:45:26;;;;;;;8.85;3.20;;;;;;;37.47;33.63;97177.50;5054985;28;20113;-73
2023/07/29 07:47:55;;;;;;;6.97;3.30;;;;;;;37.61;33.56;97184.22;5055304;28;20024;-74
2023/07/29 07:50:21;;;;;;;7.85;2.70;;;;;;;36.82;34.47;97187.22;5038946;28;20032;-74
2023/07/29 07:52:46;;;;;;;4.35;2.75;;;;;;;37.50;33.64;97192.84;5073335;28;20040;-75
2023/07/29 07:55:12;;;;;;;12.90;3.92;;;;;;;38.61;33.16;97199.38;5072623;28;20028;-73
2023/07/29 07:57:37;;;;;;;16.33;3.60;;;;;;;39.09;31.17;97188.66;5073033;28;20021;-74
2023/07/29 08:00:04;;;;;;;6.20;3.00;;;;;;;38.31;31.89;97189.06;5073017;28;20416;-73
2023/07/29 08:02:30;;;;;;;4.85;2.80;;;;;;;37.96;32.39;97194.66;5072718;28;20491;-73
2023/07/29 08:04:55;;;;;;;3.15;2.67;;;;;;;36.64;34.80;97196.00;5055518;28;20033;-74
2023/07/29 08:07:21;;;;;;;4.65;2.97;;;;;;;36.07;35.00;97197.78;5072845;28;20033;-72
2023/07/29 08:09:46;;;;;;;4.80;2.70;;;;;;;36.93;33.99;97186.16;5054923;28;20447;-73
2023/07/29 08:12:12;;;;;;;28.40;3.97;;;;;;;38.90;32.29;97192.09;5054759;28;20422;-73
2023/07/29 08:14:37;;;;;;;6.78;2.95;;;;;;;38.93;31.03;97173.88;5054636;28;20021;-73
2023/07/29 08:17:03;;;;;;;2.83;2.50;;;;;;;38.94;30.80;97178.38;5038105;28;20025;-73
2023/07/29 08:19:29;;;;;;;3.90;3.00;;;;;;;37.39;31.96;97176.03;5072503;28;20043;-73
2023/07/29 08:21:54;;;;;;;4.20;3.25;;;;;;;38.01;32.38;97182.63;5072563;28;20495;-73
2023/07/29 08:24:20;;;;;;;4.90;3.40;;;;;;;39.46;31.54;97189.09;5072514;28;20040;-74
2023/07/29 08:26:45;;;;;;;3.00;2.70;;;;;;;39.72;30.93;97193.44;5048946;28;20423;-73
2023/07/29 08:29:12;;;;;;;3.88;3.08;;;;;;;40.15;31.08;97179.75;5038483;28;20044;-74
2023/07/29 08:31:37;;;;;;;3.55;2.67;;;;;;;40.70;29.79;97173.63;5034446;28;20025;-73
2023/07/29 08:34:03;;;;;;;13.18;3.70;;;;;;;41.57;30.08;97180.75;5034554;28;20032;-73
2023/07/29 08:36:28;;;;;;;5.10;2.67;;;;;;;41.18;29.66;97157.66;5034387;28;20029;-74
2023/07/29 08:38:54;;;;;;;9.65;3.13;;;;;;;40.22;29.74;97169.00;5054477;28;20032;-73
2023/07/29 08:41:25;;;;;;;10.57;3.22;;;;;;;40.61;29.23;97155.75;5037451;28;20033;-73
2023/07/29 08:44:07;;;;;;;;;;;;;;;40.08;30.12;97158.44;5054579;28;20128;-73
2023/07/29 08:46:33;;;;;;;5.88;2.60;;;;;;;38.07;31.41;97159.16;5054175;28;19920;-74
2023/07/29 08:48:59;;;;;;;3.40;2.50;;;;;;;37.82;31.61;97152.41;5054389;28;20483;-73
2023/07/29 08:51:25;;;;;;;4.05;2.38;;;;;;;38.06;30.85;97141.53;5072046;28;20047;-72
2023/07/29 08:53:51;;;;;;;7.32;2.40;;;;;;;39.04;30.57;97153.97;5054257;28;20027;-73
2023/07/29 08:56:16;;;;;;;10.00;3.20;;;;;;;40.14;30.48;97144.41;5054061;28;20028;-73
2023/07/29 08:58:43;;;;;;;3.30;2.35;;;;;;;41.01;28.19;97138.47;5053942;28;20034;-74
2023/07/29 09:01:08;;;;;;;13.82;2.58;;;;;;;41.33;27.84;97142.56;5054075;28;20036;-73
2023/07/29 09:03:34;;;;;;;2.30;2.10;;;;;;;43.30;25.40;97136.41;5053871;28;20078;-74
2023/07/29 09:06:00;;;;;;;13.27;2.88;;;;;;;43.74;24.15;97133.72;5053794;28;20507;-76
2023/07/29 09:08:26;;;;;;;3.80;2.17;;;;;;;42.37;25.80;97120.75;5070364;28;20063;-74
2023/07/29 09:10:52;;;;;;;16.73;3.28;;;;;;;42.64;25.74;97126.47;5053793;28;20025;-75
2023/07/29 09:13:17;;;;;;;4.95;2.63;;;;;;;44.46;24.58;97117.56;5053991;28;20094;-75
2023/07/29 09:15:43;;;;;;;17.85;2.80;;;;;;;44.45;23.46;97117.88;5071237;28;20399;-75
2023/07/29 09:18:16;;;;;;;7.25;2.70;;;;;;;44.01;23.58;97110.25;5071473;28;20104;-75
2023/07/29 09:20:42;;;;;;;3.00;2.55;;;;;;;44.68;22.76;97113.88;5053659;28;20055;-73
2023/07/29 09:23:10;;;;;;;5.05;2.00;;;;;;;43.90;23.15;97112.47;5053350;28;20033;-73
2023/07/29 09:25:36;;;;;;;2.45;2.22;;;;;;;43.74;23.13;97108.34;5086855;28;20116;-74
2023/07/29 09:28:10;;;;;;;3.97;1.80;;;;;;;41.91;23.42;97095.38;5053285;28;20021;-73
2023/07/29 09:30:38;;;;;;;1.63;1.52;;;;;;;42.21;23.25;97091.25;5071341;28;20051;-73
2023/07/29 09:33:03;;;;;;;2.10;1.90;;;;;;;42.37;22.94;97086.97;5053224;28;20119;-74
2023/07/29 09:35:31;;;;;;;9.82;2.65;;;;;;;42.30;23.46;97087.38;5071230;28;20099;-74
2023/07/29 09:37:57;;;;;;;4.90;3.00;;;;;;;43.16;23.56;97097.00;5053046;28;20045;-75
2023/07/29 09:40:23;;;;;;;3.15;2.60;;;;;;;44.90;22.60;97091.22;5071213;28;20031;-74
2023/07/29 09:42:50;;;;;;;1.73;1.60;;;;;;;45.52;21.39;97089.09;5071176;28;20029;-74
2023/07/29 09:45:26;;;;;;;5.75;2.08;;;;;;;45.40;22.03;97085.25;5053024;28;20024;-74
2023/07/29 09:47:57;;;;;;;22.40;6.55;;;;;;;44.23;21.94;97077.25;5053303;28;20052;-74
2023/07/29 09:50:26;;;;;;;12.25;3.20;;;;;;;43.71;22.64;97075.16;5071028;28;20075;-74
2023/07/29 09:52:53;;;;;;;5.22;2.20;;;;;;;42.51;23.19;97076.59;5070342;28;20111;-74
2023/07/29 09:55:20;;;;;;;45.92;8.02;;;;;;;43.24;23.18;97078.50;5036439;28;20016;-74
2023/07/29 09:57:45;;;;;;;8.15;3.63;;;;;;;45.17;21.76;97082.53;5053142;28;20131;-73
2023/07/29 10:00:12;;;;;;;2.30;1.88;;;;;;;45.15;21.51;97081.19;5070618;28;20555;-73
2023/07/29 10:02:42;;;;;;;22.30;6.13;;;;;;;44.97;22.14;97083.16;5052998;28;20078;-73
2023/07/29 10:05:08;;;;;;;9.43;3.25;;;;;;;46.68;20.77;97081.50;5052376;28;20025;-73
2023/07/29 10:07:38;;;;;;;2.72;1.80;;;;;;;46.20;20.72;97079.81;5070987;28;20085;-75
2023/07/29 10:10:05;;;;;;;4.70;1.80;;;;;;;47.33;20.30;97079.06;5052794;28;20476;-73
2023/07/29 10:12:31;;;;;;;4.07;1.85;;;;;;;46.69;20.67;97069.88;5052931;28;20036;-75
2023/07/29 10:15:02;;;;;;;11.02;4.22;;;;;;;46.59;20.86;97073.06;5070709;28;20079;-75
2023/07/29 10:17:29;;;;;;;5.72;2.50;;;;;;;46.19;21.00;97065.97;5052917;28;20095;-74
2023/07/29 10:19:58;;;;;;;3.47;2.10;;;;;;;46.62;20.37;97063.88;5036024;28;20028;-74
2023/07/29 10:22:28;;;;;;;19.85;4.70;;;;;;;46.50;21.27;97074.25;5070678;28;20028;-73
2023/07/29 10:24:57;;;;;;;3.55;2.58;;;;;;;44.89;21.09;97058.47;5052668;28;20028;-75
2023/07/29 10:27:24;;;;;;;4.60;4.05;;;;;;;44.20;22.45;97057.31;5052693;28;20089;-74
2023/07/29 10:29:50;;;;;;;2.13;1.90;;;;;;;42.79;23.63;97050.16;5052576;28;20020;-74
2023/07/29 10:32:16;;;;;;;2.88;2.10;;;;;;;42.96;23.69;97061.59;5070279;28;20035;-74
2023/07/29 10:34:42;;;;;;;3.90;1.90;;;;;;;43.16;23.64;97052.72;5035960;28;20024;-75
2023/07/29 10:37:08;;;;;;;5.50;2.10;;;;;;;43.36;24.00;97056.22;5052220;28;20428;-75
2023/07/29 10:39:40;;;;;;;6.13;2.28;;;;;;;43.47;23.38;97038.78;5035853;28;20028;-74
2023/07/29 10:42:06;;;;;;;2.13;1.52;;;;;;;44.27;22.32;97040.78;5052500;28;20020;-73
2023/07/29 10:44:43;;;;;;;1.50;1.40;;;;;;;44.85;21.19;97029.25;5070503;28;20032;-75
2023/07/29 10:47:12;;;;;;;1.92;1.52;;;;;;;44.80;22.52;97034.19;5070170;28;20040;-74
2023/07/29 10:49:43;;;;;;;2.83;1.67;;;;;;;43.74;23.69;97032.22;5070319;28;20029;-74
2023/07/29 10:52:13;;;;;;;2.30;2.10;;;;;;;44.40;23.35;97033.34;5052235;28;20020;-73
2023/07/29 10:54:47;;;;;;;3.80;1.85;;;;;;;43.70;23.59;97036.84;5052449;28;20403;-73
2023/07/29 10:57:14;;;;;;;4.43;1.70;;;;;;;42.54;24.36;97030.94;5052109;28;20027;-75
2023/07/29 10:59:40;;;;;;;1.95;1.55;;;;;;;42.75;24.65;97029.41;5052592;28;20457;-73
2023/07/29 11:02:15;;;;;;;4.07;3.17;;;;;;;43.08;24.07;97030.94;5052450;28;20064;-74
2023/07/29 11:04:49;;;;;;;5.85;1.80;;;;;;;44.07;23.79;97029.97;5052489;28;20056;-74
2023/07/29 11:07:15;;;;;;;3.53;1.50;;;;;;;45.62;21.51;97022.91;5056331;28;20024;-74
2023/07/29 11:09:59;;;;;;;1.70;1.60;;;;;;;46.04;21.31;97016.38;5073777;28;20078;-75
2023/07/29 11:12:40;;;;;;;5.38;1.70;;;;;;;46.37;21.36;97024.28;5073820;28;20086;-75
2023/07/29 11:15:23;;;;;;;3.17;1.70;;;;;;;46.31;21.34;97024.50;5074223;28;20169;-75
2023/07/29 11:18:00;;;;;;;8.57;1.58;;;;;;;47.56;20.32;97010.72;5074038;28;20051;-76
2023/07/29 11:20:27;;;;;;;4.20;1.60;;;;;;;47.60;20.20;97000.31;5089236;28;20048;-75
2023/07/29 11:22:54;;;;;;;2.83;1.30;;;;;;;46.60;20.68;97003.09;5055950;28;20369;-75
2023/07/29 11:25:22;;;;;;;6.13;1.80;;;;;;;45.78;21.50;97005.09;5055636;28;20028;-74